Friday, July 20, 2018, 4:57 AM EDT
Back to Local

KBJJ, Wooster Wayne County Airport

Location: Smithville, OH, United States Lat: 40.867
Local Time: 4:57 AM EDT ( 8:57 GMT) Lon: -81.883
Time Zone: US/Eastern Elev: 1138 ft

Show me the last for .
Show Decoded

2018-07-20 03:56 METAR KBJJ 200756Z AUTO 12005KT 10SM FEW060 18/14 A2998 RMK AO2 SLP144 T01780144
                 =
2018-07-20 02:56 METAR KBJJ 200656Z AUTO 00000KT 10SM FEW060 18/14 A2997 RMK AO2 SLP143 T01830144
                 =
2018-07-20 01:56 METAR KBJJ 200556Z AUTO 14003KT 10SM FEW055 18/14 A2998 RMK AO2 SLP146 T01780144
                 10256 20167 58012 =
2018-07-20 00:56 METAR KBJJ 200456Z AUTO 13003KT 10SM BKN055 17/15 A3000 RMK AO2 SLP153 T01720150
                 402780106 =
2018-07-19 23:56 METAR KBJJ 200356Z AUTO 00000KT 10SM CLR 17/14 A3001 RMK AO2 SLP158 T01720144 =
2018-07-19 22:56 METAR KBJJ 200256Z AUTO 00000KT 10SM CLR 18/14 A3002 RMK AO2 SLP159 T01830144
                 53004 =
2018-07-19 21:56 METAR KBJJ 200156Z AUTO 12003KT 10SM CLR 21/14 A3002 RMK AO2 SLP158 T02060139 =
2018-07-19 20:56 METAR KBJJ 200056Z AUTO 14006KT 10SM CLR 22/14 A3001 RMK AO2 SLP156 T02220139 =
2018-07-19 19:56 METAR KBJJ 192356Z AUTO 15005KT 10SM CLR 26/13 A3001 RMK AO2 SLP155 T02560128
                 10278 20256 57011 =
2018-07-19 18:56 METAR KBJJ 192256Z AUTO 13007KT 10SM CLR 27/14 A3002 RMK AO2 SLP160 T02720139 =
2018-07-19 17:56 METAR KBJJ 192156Z AUTO 12008KT 10SM CLR 27/14 A3003 RMK AO2 SLP165 T02720139 =
2018-07-19 16:56 METAR KBJJ 192056Z AUTO 15006G14KT 10SM CLR 27/13 A3004 RMK AO2 SLP168 T02720128
                 56014 =
2018-07-19 15:56 METAR KBJJ 191956Z AUTO 14006KT 10SM CLR 28/14 A3005 RMK AO2 SLP170 T02780139 =
2018-07-19 14:56 METAR KBJJ 191856Z AUTO 11009KT 10SM CLR 27/14 A3006 RMK AO2 SLP175 T02720139 =
2018-07-19 13:56 METAR KBJJ 191756Z AUTO 14007KT 080V190 10SM CLR 27/12 A3008 RMK AO2 SLP182
                 T02670122 10267 20172 58014 =
2018-07-19 12:56 METAR KBJJ 191656Z AUTO VRB05KT 10SM CLR 26/12 A3010 RMK AO2 SLP188 T02560122 =
2018-07-19 11:56 METAR KBJJ 191556Z AUTO 22005KT 10SM CLR 24/12 A3011 RMK AO2 SLP192 T02390122 =
2018-07-19 10:56 METAR KBJJ 191456Z AUTO VRB06KT 10SM CLR 23/14 A3013 RMK AO2 SLP196 T02330144
                 50002 =
2018-07-19 09:56 METAR KBJJ 191356Z AUTO 13007KT 10SM CLR 22/13 A3013 RMK AO2 SLP197 T02170133 =
2018-07-19 08:56 METAR KBJJ 191256Z AUTO 09004KT 10SM CLR 19/13 A3013 RMK AO2 SLP198 T01940133 =
2018-07-19 07:56 METAR KBJJ 191156Z AUTO 08004KT 10SM CLR 17/13 A3012 RMK AO2 SLP194 T01720133
                 10172 20106 51007 =
2018-07-19 06:56 METAR KBJJ 191056Z AUTO 00000KT 10SM CLR 12/11 A3012 RMK AO2 SLP195 T01170111 =
2018-07-19 05:56 METAR KBJJ 190956Z AUTO 00000KT 10SM CLR 11/09 A3011 RMK AO2 SLP194 T01060094 =

Support USWX by starting your Amazon purchase here.